createdAt,value
2023-03-02T00:02:41.716Z,1.63
2023-03-02T00:05:49.218Z,1.60
2023-03-02T00:08:56.887Z,1.51
2023-03-02T00:12:00.186Z,1.42
2023-03-02T00:15:08.660Z,1.36
2023-03-02T00:18:13.233Z,1.34
2023-03-02T00:21:17.540Z,1.24
2023-03-02T00:24:25.475Z,1.19
2023-03-02T00:27:30.282Z,1.27
2023-03-02T00:30:34.802Z,1.32
2023-03-02T00:33:38.500Z,1.26
2023-03-02T00:36:44.742Z,1.18
2023-03-02T00:39:51.047Z,1.11
2023-03-02T00:42:53.852Z,1.13
2023-03-02T00:45:57.638Z,1.13
2023-03-02T00:49:06.658Z,1.11
2023-03-02T00:52:09.440Z,1.16
2023-03-02T00:55:12.741Z,1.15
2023-03-02T00:58:17.466Z,1.24
2023-03-02T01:01:21.171Z,1.34
2023-03-02T01:04:28.068Z,1.49
2023-03-02T01:07:35.143Z,1.51
2023-03-02T01:10:39.550Z,1.51
2023-03-02T01:13:49.215Z,1.49
2023-03-02T01:16:52.712Z,1.52
2023-03-02T01:19:58.587Z,1.54
2023-03-02T01:23:03.821Z,1.42
2023-03-02T01:26:07.441Z,1.28
2023-03-02T01:29:16.034Z,1.09
2023-03-02T01:32:19.773Z,1.02
2023-03-02T01:35:24.309Z,1.15
2023-03-02T01:38:29.069Z,1.06
2023-03-02T01:41:35.051Z,1.00
2023-03-02T01:44:45.712Z,1.13
2023-03-02T01:47:50.568Z,1.07
2023-03-02T01:50:54.251Z,0.99
2023-03-02T01:54:01.814Z,0.98
2023-03-02T01:57:06.629Z,0.96
2023-03-02T02:00:12.779Z,0.95
2023-03-02T02:03:23.962Z,0.98
2023-03-02T02:06:39.854Z,0.97
2023-03-02T02:09:46.736Z,1.00
2023-03-02T02:13:04.481Z,1.04
2023-03-02T02:16:14.451Z,1.06
2023-03-02T02:19:28.906Z,1.13
2023-03-02T02:22:54.290Z,1.18
2023-03-02T02:25:56.565Z,1.21
2023-03-02T02:29:02.014Z,1.17
2023-03-02T02:32:16.776Z,1.18
2023-03-02T02:35:32.986Z,1.21
2023-03-02T02:38:38.513Z,1.15
2023-03-02T02:41:42.439Z,1.07
2023-03-02T02:44:47.079Z,1.05
2023-03-02T02:47:52.703Z,1.07
2023-03-02T02:51:04.138Z,1.02
2023-03-02T02:54:06.327Z,1.07
2023-03-02T02:57:12.902Z,1.04
2023-03-02T03:00:18.069Z,1.03
2023-03-02T03:03:33.650Z,1.02
2023-03-02T03:06:45.869Z,0.99
2023-03-02T03:09:58.532Z,0.99
2023-03-02T03:13:04.939Z,0.95
2023-03-02T03:16:15.205Z,0.91
2023-03-02T03:19:25.149Z,0.93
2023-03-02T03:22:35.736Z,1.00
2023-03-02T03:25:40.927Z,1.12
2023-03-02T03:28:48.852Z,1.12
2023-03-02T03:31:57.635Z,1.15
2023-03-02T03:35:09.067Z,1.18
2023-03-02T03:38:18.605Z,1.19
2023-03-02T03:41:29.484Z,1.18
2023-03-02T03:44:34.207Z,1.12
2023-03-02T03:47:37.298Z,1.05
2023-03-02T03:50:40.976Z,1.03
2023-03-02T03:53:45.238Z,1.00
2023-03-02T03:56:55.790Z,0.96
2023-03-02T04:00:02.287Z,0.90
2023-03-02T04:03:08.204Z,0.78
2023-03-02T04:06:20.329Z,0.75
2023-03-02T04:09:25.282Z,0.69
2023-03-02T04:12:35.607Z,0.63
2023-03-02T04:15:39.356Z,0.53
2023-03-02T04:18:47.736Z,0.50
2023-03-02T04:21:57.060Z,0.48
2023-03-02T04:25:07.817Z,0.48
2023-03-02T04:28:10.307Z,0.49
2023-03-02T04:31:16.720Z,0.49
2023-03-02T04:34:22.925Z,0.42
2023-03-02T04:37:32.096Z,0.49
2023-03-02T04:40:36.005Z,0.47
2023-03-02T04:43:44.835Z,0.43
2023-03-02T04:46:49.559Z,0.32
2023-03-02T04:50:10.601Z,0.26
2023-03-02T04:53:15.121Z,0.29
2023-03-02T04:56:26.148Z,0.43
2023-03-02T04:59:31.335Z,0.42
2023-03-02T05:02:34.485Z,0.62
2023-03-02T05:05:37.963Z,0.74
2023-03-02T05:08:46.121Z,0.85
2023-03-02T05:12:00.587Z,0.91
2023-03-02T05:15:06.979Z,0.93
2023-03-02T05:18:21.265Z,0.90
2023-03-02T05:21:29.713Z,0.97
2023-03-02T05:24:39.013Z,1.02
2023-03-02T05:27:46.551Z,1.02
2023-03-02T05:30:50.248Z,0.97
2023-03-02T05:33:55.954Z,0.99
2023-03-02T05:37:07.077Z,1.05
2023-03-02T05:40:19.128Z,1.14
2023-03-02T05:43:22.476Z,1.19
2023-03-02T05:46:26.026Z,1.24
2023-03-02T05:49:33.882Z,1.30
2023-03-02T05:52:43.318Z,1.34
2023-03-02T05:55:48.362Z,1.40
2023-03-02T05:59:03.941Z,1.54
2023-03-02T06:02:17.769Z,1.64
2023-03-02T06:05:26.503Z,1.67
2023-03-02T06:08:31.750Z,1.74
2023-03-02T06:11:40.875Z,1.79
2023-03-02T06:14:43.837Z,1.88
2023-03-02T06:17:47.877Z,1.96
2023-03-02T06:20:55.483Z,2.05
2023-03-02T06:23:58.775Z,2.23
2023-03-02T06:27:06.473Z,2.36
2023-03-02T06:30:14.678Z,2.48
2023-03-02T06:33:19.514Z,2.79
2023-03-02T06:36:26.011Z,4.15
2023-03-02T06:39:32.199Z,7.67
2023-03-02T06:42:40.671Z,9.45
2023-03-02T06:45:46.071Z,10.12
2023-03-02T06:48:49.902Z,8.35
2023-03-02T06:51:57.651Z,7.63
2023-03-02T06:55:03.480Z,6.79
2023-03-02T06:58:08.515Z,6.57
2023-03-02T07:01:16.757Z,6.17
2023-03-02T07:04:24.949Z,6.71
2023-03-02T07:07:29.960Z,7.54
2023-03-02T07:10:34.122Z,7.56
2023-03-02T07:13:41.905Z,6.11
2023-03-02T07:16:47.625Z,5.59
2023-03-02T07:19:51.104Z,5.28
2023-03-02T07:22:55.256Z,5.48
2023-03-02T07:26:03.080Z,5.84
2023-03-02T07:29:06.434Z,6.33
2023-03-02T07:32:12.469Z,6.80
2023-03-02T07:35:20.219Z,6.73
2023-03-02T07:38:26.824Z,6.66
2023-03-02T07:41:34.026Z,6.33
2023-03-02T07:44:37.096Z,6.41
2023-03-02T07:47:40.042Z,6.32
2023-03-02T07:50:46.619Z,6.28
2023-03-02T07:53:49.528Z,6.32
2023-03-02T07:56:52.956Z,6.36
2023-03-02T07:59:59.069Z,6.14
2023-03-02T08:03:01.922Z,6.39
2023-03-02T08:06:07.342Z,6.26
2023-03-02T08:09:10.506Z,6.62
2023-03-02T08:12:14.772Z,6.57
2023-03-02T08:15:21.710Z,6.49
2023-03-02T08:18:25.228Z,6.58
2023-03-02T08:21:32.612Z,6.87
2023-03-02T08:24:42.654Z,7.18
2023-03-02T08:27:47.288Z,7.30
2023-03-02T08:31:05.523Z,7.56
2023-03-02T08:34:10.470Z,7.77
2023-03-02T08:37:22.496Z,7.48
2023-03-02T08:40:30.394Z,7.57
2023-03-02T08:43:34.934Z,7.72
2023-03-02T08:46:37.683Z,7.94
2023-03-02T08:49:51.434Z,8.04
2023-03-02T08:52:54.039Z,8.03
2023-03-02T08:56:01.516Z,7.94
2023-03-02T08:59:09.696Z,7.96
2023-03-02T09:02:15.369Z,7.91
2023-03-02T09:05:20.514Z,8.01
2023-03-02T09:08:25.235Z,8.22
2023-03-02T09:11:27.708Z,8.47
2023-03-02T09:14:33.886Z,8.43
2023-03-02T09:17:44.682Z,8.53
2023-03-02T09:20:53.889Z,8.46
2023-03-02T09:24:00.481Z,8.34
2023-03-02T09:27:09.747Z,8.42
2023-03-02T09:30:15.152Z,8.60
2023-03-02T09:33:18.733Z,8.85
2023-03-02T09:36:23.491Z,9.09
2023-03-02T09:39:27.194Z,8.98
2023-03-02T09:42:43.012Z,9.07
2023-03-02T09:45:53.221Z,9.08
2023-03-02T09:48:57.678Z,9.10
2023-03-02T09:52:16.095Z,9.22
2023-03-02T09:55:26.842Z,9.21
2023-03-02T09:58:35.662Z,9.43
2023-03-02T10:01:46.822Z,9.62
2023-03-02T10:04:53.631Z,9.54
2023-03-02T10:07:59.442Z,9.38
2023-03-02T10:11:14.924Z,9.74
2023-03-02T10:14:27.311Z,9.94
2023-03-02T10:17:38.304Z,9.41
2023-03-02T10:20:48.362Z,9.42
2023-03-02T10:23:56.958Z,9.65
2023-03-02T10:27:18.526Z,9.99
2023-03-02T10:30:37.909Z,10.35
2023-03-02T10:33:44.962Z,10.23
2023-03-02T10:36:48.618Z,10.35
2023-03-02T10:39:52.843Z,10.42
2023-03-02T10:42:58.799Z,10.66
2023-03-02T10:46:05.688Z,10.79
2023-03-02T10:49:41.160Z,10.97
2023-03-02T10:52:59.968Z,10.77
2023-03-02T10:56:05.834Z,10.85
2023-03-02T10:59:34.532Z,11.08
2023-03-02T11:06:06.412Z,11.57
2023-03-02T11:09:15.149Z,11.64
2023-03-02T11:12:19.867Z,11.82
2023-03-02T11:15:28.703Z,11.65
2023-03-02T11:18:50.507Z,11.48
2023-03-02T11:21:59.704Z,11.68
2023-03-02T11:25:09.492Z,11.86
2023-03-02T11:28:36.196Z,11.92
2023-03-02T11:31:43.649Z,11.94
2023-03-02T11:35:00.025Z,11.97
2023-03-02T11:38:27.985Z,12.01
2023-03-02T11:41:38.329Z,12.06
2023-03-02T11:44:40.989Z,12.16
2023-03-02T11:47:54.275Z,12.15
2023-03-02T11:51:01.324Z,12.03
2023-03-02T11:54:06.983Z,12.16
2023-03-02T11:57:32.707Z,12.26
2023-03-02T12:00:40.412Z,12.31
2023-03-02T12:03:46.996Z,12.21
2023-03-02T12:06:52.862Z,12.16
2023-03-02T12:10:10.566Z,12.38
2023-03-02T12:13:22.053Z,12.19
2023-03-02T12:16:37.336Z,12.11
2023-03-02T12:19:41.855Z,12.27
2023-03-02T12:22:45.180Z,12.29
2023-03-02T12:26:04.055Z,12.09
2023-03-02T12:29:09.643Z,12.22
2023-03-02T12:32:16.018Z,12.36
2023-03-02T12:35:21.030Z,12.50
2023-03-02T12:38:24.084Z,12.47
2023-03-02T12:41:42.294Z,12.37
2023-03-02T12:44:58.973Z,12.50
2023-03-02T12:48:21.992Z,12.53
2023-03-02T12:51:27.355Z,12.49
2023-03-02T12:54:32.179Z,12.59
2023-03-02T12:57:39.780Z,12.64
2023-03-02T13:00:51.182Z,12.63
2023-03-02T13:03:55.652Z,12.48
2023-03-02T13:06:58.807Z,12.47
2023-03-02T13:10:13.662Z,12.50
2023-03-02T13:13:24.472Z,12.61
2023-03-02T13:16:39.455Z,12.61
2023-03-02T13:19:44.860Z,12.41
2023-03-02T13:22:54.296Z,12.30
2023-03-02T13:25:59.838Z,12.37
2023-03-02T13:29:06.520Z,12.49
2023-03-02T13:32:21.124Z,12.55
2023-03-02T13:35:31.451Z,12.54
2023-03-02T13:38:39.350Z,12.73
2023-03-02T13:41:53.405Z,12.54
2023-03-02T13:45:01.423Z,12.51
2023-03-02T13:48:15.687Z,12.53
2023-03-02T13:51:19.600Z,12.42
2023-03-02T13:54:30.166Z,12.48
2023-03-02T13:57:33.956Z,12.47
2023-03-02T14:00:37.219Z,12.42
2023-03-02T14:03:40.450Z,12.20
2023-03-02T14:06:43.350Z,12.33
2023-03-02T14:09:47.615Z,12.36
2023-03-02T14:12:54.971Z,12.32
2023-03-02T14:16:00.380Z,12.17
2023-03-02T14:19:08.512Z,12.14
2023-03-02T14:22:12.849Z,12.19
2023-03-02T14:25:20.077Z,12.20
2023-03-02T14:28:29.594Z,12.21
2023-03-02T14:31:35.214Z,12.28
2023-03-02T14:34:39.955Z,12.14
2023-03-02T14:37:49.380Z,12.23
2023-03-02T14:40:52.375Z,12.25
2023-03-02T14:43:56.820Z,12.22
2023-03-02T14:47:00.850Z,12.21
2023-03-02T14:50:05.872Z,12.16
2023-03-02T14:53:14.300Z,12.15
2023-03-02T14:56:20.001Z,12.12
2023-03-02T14:59:26.123Z,12.01
2023-03-02T15:02:30.883Z,11.88
2023-03-02T15:05:34.180Z,11.82
2023-03-02T15:08:39.599Z,11.78
2023-03-02T15:11:43.532Z,11.84
2023-03-02T15:14:46.402Z,11.77
2023-03-02T15:17:50.204Z,11.59
2023-03-02T15:20:53.688Z,11.60
2023-03-02T15:23:56.938Z,11.46
2023-03-02T15:27:05.122Z,11.43
2023-03-02T15:30:08.841Z,11.38
2023-03-02T15:33:12.150Z,11.29
2023-03-02T15:36:19.421Z,11.27
2023-03-02T15:39:30.401Z,11.24
2023-03-02T15:42:36.456Z,11.07
2023-03-02T15:45:50.116Z,11.01
2023-03-02T15:48:54.746Z,10.94
2023-03-02T15:52:01.214Z,10.81
2023-03-02T15:55:06.874Z,10.75
2023-03-02T15:58:10.250Z,10.69
2023-03-02T16:01:21.461Z,10.62
2023-03-02T16:04:26.164Z,10.52
2023-03-02T16:07:30.099Z,10.42
2023-03-02T16:10:33.575Z,10.32
2023-03-02T16:13:37.598Z,10.11
2023-03-02T16:16:43.831Z,9.91
2023-03-02T16:19:54.156Z,9.74
2023-03-02T16:23:11.366Z,9.61
2023-03-02T16:26:20.222Z,9.72
2023-03-02T16:29:26.378Z,9.54
2023-03-02T16:32:30.799Z,9.37
2023-03-02T16:35:35.941Z,9.18
2023-03-02T16:38:38.355Z,8.98
2023-03-02T16:41:43.137Z,8.99
2023-03-02T16:44:48.272Z,8.82
2023-03-02T16:47:54.968Z,8.78
2023-03-02T16:50:59.668Z,8.68
2023-03-02T16:54:04.824Z,8.63
2023-03-02T16:57:14.672Z,8.51
2023-03-02T17:00:18.312Z,8.43
2023-03-02T17:03:23.318Z,8.25
2023-03-02T17:06:30.263Z,8.28
2023-03-02T17:09:38.517Z,8.22
2023-03-02T17:12:41.922Z,8.19
2023-03-02T17:15:45.236Z,8.07
2023-03-02T17:18:48.624Z,7.93
2023-03-02T17:21:52.936Z,7.93
2023-03-02T17:24:56.541Z,7.85
2023-03-02T17:28:00.339Z,7.68
2023-03-02T17:31:04.554Z,7.49
2023-03-02T17:34:09.735Z,7.38
2023-03-02T17:37:13.271Z,7.48
2023-03-02T17:40:18.358Z,7.41
2023-03-02T17:43:22.327Z,7.35
2023-03-02T17:46:27.359Z,7.22
2023-03-02T17:49:34.699Z,7.10
2023-03-02T17:52:38.932Z,7.00
2023-03-02T17:55:42.936Z,6.86
2023-03-02T17:58:54.025Z,6.82
2023-03-02T18:02:00.203Z,6.73
2023-03-02T18:05:04.443Z,6.62
2023-03-02T18:08:10.680Z,6.57
2023-03-02T18:11:18.918Z,6.51
2023-03-02T18:14:22.906Z,6.48
2023-03-02T18:17:29.094Z,6.59
2023-03-02T18:20:34.415Z,6.74
2023-03-02T18:30:25.359Z,6.67
2023-03-02T18:33:28.663Z,6.51
2023-03-02T18:36:33.184Z,6.52
2023-03-02T18:39:38.459Z,6.47
2023-03-02T18:42:42.788Z,6.36
2023-03-02T18:45:48.103Z,6.29
2023-03-02T18:48:53.248Z,6.17
2023-03-02T18:51:57.488Z,6.09
2023-03-02T18:55:04.276Z,5.98
2023-03-02T18:58:10.197Z,5.90
2023-03-02T19:01:14.700Z,5.76
2023-03-02T19:04:18.230Z,5.66
2023-03-02T19:07:22.090Z,5.61
2023-03-02T19:10:26.263Z,5.52
2023-03-02T19:13:30.650Z,5.49
2023-03-02T19:16:38.553Z,5.44
2023-03-02T19:19:43.907Z,5.38
2023-03-02T19:22:46.830Z,5.36
2023-03-02T19:25:52.706Z,5.38
2023-03-02T19:28:56.709Z,5.33
2023-03-02T19:32:00.043Z,5.27
2023-03-02T19:35:04.132Z,5.18
2023-03-02T19:38:09.271Z,5.15
2023-03-02T19:41:17.678Z,5.07
2023-03-02T19:44:22.186Z,5.01
2023-03-02T19:47:26.733Z,4.97
2023-03-02T19:50:32.487Z,4.89
2023-03-02T19:53:37.118Z,4.82
2023-03-02T19:56:46.636Z,4.78
2023-03-02T19:59:49.535Z,4.67
2023-03-02T20:02:53.472Z,4.59
2023-03-02T20:06:00.117Z,4.63
2023-03-02T20:09:06.612Z,4.62
2023-03-02T20:12:12.716Z,4.54
2023-03-02T20:15:17.920Z,4.49
2023-03-02T20:18:23.400Z,4.43
2023-03-02T20:21:27.962Z,4.37
2023-03-02T20:24:31.004Z,4.32
2023-03-02T20:27:37.479Z,4.26
2023-03-02T20:30:47.143Z,4.26
2023-03-02T20:33:53.799Z,4.27
2023-03-02T20:37:01.082Z,4.33
2023-03-02T20:40:10.328Z,4.58
2023-03-02T20:43:17.410Z,4.56
2023-03-02T20:46:29.998Z,4.45
2023-03-02T20:49:34.885Z,4.39
2023-03-02T20:52:39.931Z,4.28
2023-03-02T20:55:43.110Z,4.31
2023-03-02T20:58:47.932Z,4.28
2023-03-02T21:01:52.391Z,4.22
2023-03-02T21:04:57.751Z,4.14
2023-03-02T21:08:01.098Z,4.02
2023-03-02T21:11:09.562Z,3.97
2023-03-02T21:14:15.581Z,3.95
2023-03-02T21:17:18.341Z,3.87
2023-03-02T21:20:27.022Z,3.80
2023-03-02T21:23:32.131Z,3.74
2023-03-02T21:26:37.712Z,3.66
2023-03-02T21:29:45.996Z,3.67
2023-03-02T21:32:51.674Z,3.52
2023-03-02T21:35:54.570Z,3.40
2023-03-02T21:39:03.373Z,3.36
2023-03-02T21:42:06.050Z,3.29
2023-03-02T21:45:09.395Z,3.26
2023-03-02T21:48:14.262Z,3.25
2023-03-02T21:51:17.408Z,3.25
2023-03-02T21:54:19.880Z,3.19
2023-03-02T21:57:23.068Z,3.26
2023-03-02T22:00:28.103Z,3.22
2023-03-02T22:03:34.814Z,3.23
2023-03-02T22:06:39.509Z,3.14
2023-03-02T22:09:43.577Z,3.09
2023-03-02T22:12:49.079Z,3.04
2023-03-02T22:15:58.253Z,2.96
2023-03-02T22:19:05.420Z,2.90
2023-03-02T22:22:15.568Z,2.86
2023-03-02T22:25:19.984Z,2.80
2023-03-02T22:28:23.629Z,2.78
2023-03-02T22:31:27.018Z,2.76
2023-03-02T22:34:31.114Z,2.71
2023-03-02T22:37:36.175Z,2.64
2023-03-02T22:40:44.681Z,2.59
2023-03-02T22:43:48.494Z,2.58
2023-03-02T22:46:53.381Z,2.63
2023-03-02T22:49:58.360Z,2.68
2023-03-02T22:53:21.633Z,2.67
2023-03-02T22:56:36.489Z,2.60
2023-03-02T22:59:40.815Z,2.58
2023-03-02T23:02:48.720Z,2.50
2023-03-02T23:05:54.784Z,2.49
2023-03-02T23:09:02.715Z,2.56
2023-03-02T23:12:17.049Z,2.56
2023-03-02T23:15:27.310Z,2.50
2023-03-02T23:18:32.354Z,2.52
2023-03-02T23:21:41.894Z,2.55
2023-03-02T23:24:50.411Z,2.53
2023-03-02T23:27:54.328Z,2.42
2023-03-02T23:31:02.749Z,2.43
2023-03-02T23:34:10.754Z,2.34
2023-03-02T23:37:14.033Z,2.30
2023-03-02T23:40:17.654Z,2.38
2023-03-02T23:43:21.017Z,2.32
2023-03-02T23:46:29.005Z,2.28
2023-03-02T23:49:31.722Z,2.27
2023-03-02T23:52:35.911Z,2.24
2023-03-02T23:55:41.416Z,2.20
2023-03-02T23:58:44.395Z,2.18
